sensor_id;sensor_type;location;lat;lon;timestamp;P1;durP1;ratioP1;P2;durP2;ratioP2
37647;SDS011;23490;53.656;10.076;2022-07-22T00:01:16;21.88;;;16.42;;
37647;SDS011;23490;53.656;10.076;2022-07-22T00:03:42;21.17;;;16.45;;
37647;SDS011;23490;53.656;10.076;2022-07-22T00:06:07;23.45;;;17.83;;
37647;SDS011;23490;53.656;10.076;2022-07-22T00:08:32;21.75;;;17.73;;
37647;SDS011;23490;53.656;10.076;2022-07-22T00:10:58;20.42;;;16.30;;
37647;SDS011;23490;53.656;10.076;2022-07-22T00:13:23;22.77;;;17.50;;
37647;SDS011;23490;53.656;10.076;2022-07-22T00:15:49;23.42;;;17.83;;
37647;SDS011;23490;53.656;10.076;2022-07-22T00:18:15;24.15;;;17.63;;
37647;SDS011;23490;53.656;10.076;2022-07-22T00:20:40;23.90;;;18.40;;
37647;SDS011;23490;53.656;10.076;2022-07-22T00:23:07;27.00;;;18.17;;
37647;SDS011;23490;53.656;10.076;2022-07-22T00:25:32;32.75;;;19.90;;
37647;SDS011;23490;53.656;10.076;2022-07-22T00:27:58;27.38;;;18.50;;
37647;SDS011;23490;53.656;10.076;2022-07-22T00:30:23;28.65;;;17.08;;
37647;SDS011;23490;53.656;10.076;2022-07-22T00:32:48;24.50;;;16.05;;
37647;SDS011;23490;53.656;10.076;2022-07-22T00:35:14;24.65;;;15.77;;
37647;SDS011;23490;53.656;10.076;2022-07-22T00:37:39;26.17;;;16.27;;
37647;SDS011;23490;53.656;10.076;2022-07-22T00:40:05;25.08;;;15.55;;
37647;SDS011;23490;53.656;10.076;2022-07-22T00:42:31;29.58;;;17.73;;
37647;SDS011;23490;53.656;10.076;2022-07-22T00:44:56;28.02;;;18.17;;
37647;SDS011;23490;53.656;10.076;2022-07-22T00:47:22;33.45;;;20.50;;
37647;SDS011;23490;53.656;10.076;2022-07-22T00:49:47;24.35;;;16.13;;
37647;SDS011;23490;53.656;10.076;2022-07-22T00:52:13;22.25;;;15.18;;
37647;SDS011;23490;53.656;10.076;2022-07-22T00:54:38;20.00;;;12.95;;
37647;SDS011;23490;53.656;10.076;2022-07-22T00:57:04;18.70;;;11.90;;
37647;SDS011;23490;53.656;10.076;2022-07-22T00:59:30;15.60;;;9.20;;
37647;SDS011;23490;53.656;10.076;2022-07-22T01:01:55;13.10;;;8.70;;
37647;SDS011;23490;53.656;10.076;2022-07-22T01:04:21;10.52;;;6.20;;
37647;SDS011;23490;53.656;10.076;2022-07-22T01:06:46;7.95;;;5.07;;
37647;SDS011;23490;53.656;10.076;2022-07-22T01:09:12;6.95;;;4.35;;
37647;SDS011;23490;53.656;10.076;2022-07-22T01:11:38;8.07;;;4.85;;
37647;SDS011;23490;53.656;10.076;2022-07-22T01:14:04;7.32;;;4.50;;
37647;SDS011;23490;53.656;10.076;2022-07-22T01:16:30;6.63;;;3.67;;
37647;SDS011;23490;53.656;10.076;2022-07-22T01:18:55;7.57;;;3.63;;
37647;SDS011;23490;53.656;10.076;2022-07-22T01:21:21;6.70;;;3.92;;
37647;SDS011;23490;53.656;10.076;2022-07-22T01:23:46;6.82;;;3.47;;
37647;SDS011;23490;53.656;10.076;2022-07-22T01:26:12;5.00;;;2.90;;
37647;SDS011;23490;53.656;10.076;2022-07-22T01:28:38;6.03;;;3.13;;
37647;SDS011;23490;53.656;10.076;2022-07-22T01:31:04;6.05;;;2.80;;
37647;SDS011;23490;53.656;10.076;2022-07-22T01:33:30;4.40;;;2.60;;
37647;SDS011;23490;53.656;10.076;2022-07-22T01:35:55;6.88;;;2.35;;
37647;SDS011;23490;53.656;10.076;2022-07-22T01:38:21;5.97;;;2.22;;
37647;SDS011;23490;53.656;10.076;2022-07-22T01:40:47;6.80;;;2.20;;
37647;SDS011;23490;53.656;10.076;2022-07-22T01:43:13;4.13;;;1.98;;
37647;SDS011;23490;53.656;10.076;2022-07-22T01:45:42;6.78;;;2.50;;
37647;SDS011;23490;53.656;10.076;2022-07-22T01:48:08;5.30;;;1.88;;
37647;SDS011;23490;53.656;10.076;2022-07-22T01:50:33;4.88;;;1.98;;
37647;SDS011;23490;53.656;10.076;2022-07-22T01:52:59;7.32;;;2.35;;
37647;SDS011;23490;53.656;10.076;2022-07-22T01:55:24;5.35;;;1.98;;
37647;SDS011;23490;53.656;10.076;2022-07-22T01:57:49;7.75;;;2.20;;
37647;SDS011;23490;53.656;10.076;2022-07-22T02:00:15;4.68;;;2.08;;
37647;SDS011;23490;53.656;10.076;2022-07-22T02:02:40;5.20;;;2.40;;
37647;SDS011;23490;53.656;10.076;2022-07-22T02:05:06;9.80;;;3.65;;
37647;SDS011;23490;53.656;10.076;2022-07-22T02:07:32;11.02;;;3.80;;
37647;SDS011;23490;53.656;10.076;2022-07-22T02:09:58;10.02;;;4.60;;
37647;SDS011;23490;53.656;10.076;2022-07-22T02:12:24;12.13;;;5.60;;
37647;SDS011;23490;53.656;10.076;2022-07-22T02:14:49;17.58;;;6.22;;
37647;SDS011;23490;53.656;10.076;2022-07-22T02:17:14;14.43;;;6.25;;
37647;SDS011;23490;53.656;10.076;2022-07-22T02:19:40;13.93;;;5.85;;
37647;SDS011;23490;53.656;10.076;2022-07-22T02:22:06;14.85;;;6.13;;
37647;SDS011;23490;53.656;10.076;2022-07-22T02:24:32;13.75;;;7.05;;
37647;SDS011;23490;53.656;10.076;2022-07-22T02:26:57;15.65;;;6.57;;
37647;SDS011;23490;53.656;10.076;2022-07-22T02:29:23;16.02;;;7.07;;
37647;SDS011;23490;53.656;10.076;2022-07-22T02:31:48;15.68;;;6.90;;
37647;SDS011;23490;53.656;10.076;2022-07-22T02:34:13;14.88;;;7.25;;
37647;SDS011;23490;53.656;10.076;2022-07-22T02:36:39;12.93;;;7.00;;
37647;SDS011;23490;53.656;10.076;2022-07-22T02:39:04;14.45;;;6.70;;
37647;SDS011;23490;53.656;10.076;2022-07-22T02:41:30;13.95;;;6.35;;
37647;SDS011;23490;53.656;10.076;2022-07-22T02:43:55;15.68;;;7.13;;
37647;SDS011;23490;53.656;10.076;2022-07-22T02:46:21;9.80;;;5.97;;
37647;SDS011;23490;53.656;10.076;2022-07-22T02:48:47;15.38;;;5.43;;
37647;SDS011;23490;53.656;10.076;2022-07-22T02:51:13;15.15;;;5.13;;
37647;SDS011;23490;53.656;10.076;2022-07-22T02:53:38;10.13;;;4.70;;
37647;SDS011;23490;53.656;10.076;2022-07-22T02:56:04;9.18;;;3.75;;
37647;SDS011;23490;53.656;10.076;2022-07-22T02:58:29;15.65;;;4.75;;
37647;SDS011;23490;53.656;10.076;2022-07-22T03:00:55;11.43;;;4.15;;
37647;SDS011;23490;53.656;10.076;2022-07-22T03:03:20;9.77;;;4.28;;
37647;SDS011;23490;53.656;10.076;2022-07-22T03:05:45;12.40;;;4.28;;
37647;SDS011;23490;53.656;10.076;2022-07-22T03:08:11;10.15;;;4.40;;
37647;SDS011;23490;53.656;10.076;2022-07-22T03:10:36;12.48;;;4.20;;
37647;SDS011;23490;53.656;10.076;2022-07-22T03:13:02;8.98;;;3.80;;
37647;SDS011;23490;53.656;10.076;2022-07-22T03:15:27;8.32;;;3.38;;
37647;SDS011;23490;53.656;10.076;2022-07-22T03:17:52;11.05;;;3.17;;
37647;SDS011;23490;53.656;10.076;2022-07-22T03:20:18;11.93;;;3.97;;
37647;SDS011;23490;53.656;10.076;2022-07-22T03:22:43;9.70;;;3.15;;
37647;SDS011;23490;53.656;10.076;2022-07-22T03:25:08;9.45;;;2.83;;
37647;SDS011;23490;53.656;10.076;2022-07-22T03:27:34;10.80;;;2.42;;
37647;SDS011;23490;53.656;10.076;2022-07-22T03:29:59;7.25;;;2.50;;
37647;SDS011;23490;53.656;10.076;2022-07-22T03:32:24;10.60;;;2.72;;
37647;SDS011;23490;53.656;10.076;2022-07-22T03:34:50;10.52;;;3.28;;
37647;SDS011;23490;53.656;10.076;2022-07-22T03:37:15;8.73;;;2.55;;
37647;SDS011;23490;53.656;10.076;2022-07-22T03:39:40;9.27;;;3.15;;
37647;SDS011;23490;53.656;10.076;2022-07-22T03:42:06;7.88;;;2.92;;
37647;SDS011;23490;53.656;10.076;2022-07-22T03:44:31;8.38;;;3.00;;
37647;SDS011;23490;53.656;10.076;2022-07-22T03:46:56;8.52;;;2.60;;
37647;SDS011;23490;53.656;10.076;2022-07-22T03:49:22;6.75;;;2.50;;
37647;SDS011;23490;53.656;10.076;2022-07-22T03:51:47;8.35;;;2.83;;
37647;SDS011;23490;53.656;10.076;2022-07-22T03:54:12;8.98;;;2.35;;
37647;SDS011;23490;53.656;10.076;2022-07-22T03:56:38;10.18;;;2.80;;
37647;SDS011;23490;53.656;10.076;2022-07-22T03:59:03;12.27;;;2.35;;
37647;SDS011;23490;53.656;10.076;2022-07-22T04:01:28;7.88;;;2.72;;
37647;SDS011;23490;53.656;10.076;2022-07-22T04:03:54;5.65;;;2.03;;
37647;SDS011;23490;53.656;10.076;2022-07-22T04:06:19;9.05;;;2.58;;
37647;SDS011;23490;53.656;10.076;2022-07-22T04:08:45;9.27;;;2.80;;
37647;SDS011;23490;53.656;10.076;2022-07-22T04:11:10;13.65;;;2.85;;
37647;SDS011;23490;53.656;10.076;2022-07-22T04:13:35;9.55;;;2.63;;
37647;SDS011;23490;53.656;10.076;2022-07-22T04:16:01;8.60;;;2.40;;
37647;SDS011;23490;53.656;10.076;2022-07-22T04:18:29;11.15;;;2.53;;
37647;SDS011;23490;53.656;10.076;2022-07-22T04:20:55;11.65;;;3.05;;
37647;SDS011;23490;53.656;10.076;2022-07-22T04:23:21;8.70;;;2.78;;
37647;SDS011;23490;53.656;10.076;2022-07-22T04:25:46;16.55;;;3.20;;
37647;SDS011;23490;53.656;10.076;2022-07-22T04:28:12;7.18;;;2.60;;
37647;SDS011;23490;53.656;10.076;2022-07-22T04:30:37;12.20;;;3.13;;
37647;SDS011;23490;53.656;10.076;2022-07-22T04:33:02;8.77;;;2.55;;
37647;SDS011;23490;53.656;10.076;2022-07-22T04:35:27;10.35;;;2.72;;
37647;SDS011;23490;53.656;10.076;2022-07-22T04:37:53;8.20;;;2.70;;
37647;SDS011;23490;53.656;10.076;2022-07-22T04:40:18;11.82;;;2.75;;
37647;SDS011;23490;53.656;10.076;2022-07-22T04:42:43;10.85;;;3.35;;
37647;SDS011;23490;53.656;10.076;2022-07-22T04:45:10;11.68;;;2.55;;
37647;SDS011;23490;53.656;10.076;2022-07-22T04:47:36;8.57;;;2.83;;
37647;SDS011;23490;53.656;10.076;2022-07-22T04:50:02;10.10;;;2.92;;
37647;SDS011;23490;53.656;10.076;2022-07-22T04:52:27;7.93;;;2.80;;
37647;SDS011;23490;53.656;10.076;2022-07-22T04:54:52;11.73;;;2.78;;
37647;SDS011;23490;53.656;10.076;2022-07-22T04:57:18;10.70;;;3.22;;
37647;SDS011;23490;53.656;10.076;2022-07-22T04:59:43;16.08;;;3.15;;
37647;SDS011;23490;53.656;10.076;2022-07-22T05:02:08;10.77;;;4.18;;
37647;SDS011;23490;53.656;10.076;2022-07-22T05:04:34;8.23;;;3.30;;
37647;SDS011;23490;53.656;10.076;2022-07-22T05:06:59;11.85;;;4.07;;
37647;SDS011;23490;53.656;10.076;2022-07-22T05:09:24;11.45;;;3.78;;
37647;SDS011;23490;53.656;10.076;2022-07-22T05:11:50;12.90;;;2.70;;
37647;SDS011;23490;53.656;10.076;2022-07-22T05:14:15;10.30;;;2.92;;
37647;SDS011;23490;53.656;10.076;2022-07-22T05:16:41;6.97;;;3.00;;
37647;SDS011;23490;53.656;10.076;2022-07-22T05:19:06;13.23;;;3.80;;
37647;SDS011;23490;53.656;10.076;2022-07-22T05:21:32;11.93;;;3.60;;
37647;SDS011;23490;53.656;10.076;2022-07-22T05:23:57;14.00;;;4.38;;
37647;SDS011;23490;53.656;10.076;2022-07-22T05:26:23;15.77;;;3.83;;
37647;SDS011;23490;53.656;10.076;2022-07-22T05:28:49;11.25;;;3.63;;
37647;SDS011;23490;53.656;10.076;2022-07-22T05:31:15;12.63;;;3.45;;
37647;SDS011;23490;53.656;10.076;2022-07-22T05:33:40;12.02;;;3.40;;
37647;SDS011;23490;53.656;10.076;2022-07-22T05:36:06;11.73;;;3.42;;
37647;SDS011;23490;53.656;10.076;2022-07-22T05:38:32;13.13;;;4.00;;
37647;SDS011;23490;53.656;10.076;2022-07-22T05:40:58;13.75;;;3.72;;
37647;SDS011;23490;53.656;10.076;2022-07-22T05:43:23;10.50;;;3.25;;
37647;SDS011;23490;53.656;10.076;2022-07-22T05:45:49;18.42;;;4.05;;
37647;SDS011;23490;53.656;10.076;2022-07-22T05:48:14;14.68;;;3.40;;
37647;SDS011;23490;53.656;10.076;2022-07-22T05:50:40;12.65;;;3.97;;
37647;SDS011;23490;53.656;10.076;2022-07-22T05:53:05;8.68;;;3.65;;
37647;SDS011;23490;53.656;10.076;2022-07-22T05:55:30;14.00;;;3.72;;
37647;SDS011;23490;53.656;10.076;2022-07-22T05:57:56;13.20;;;3.63;;
37647;SDS011;23490;53.656;10.076;2022-07-22T06:00:21;14.18;;;3.95;;
37647;SDS011;23490;53.656;10.076;2022-07-22T06:02:47;16.42;;;3.42;;
37647;SDS011;23490;53.656;10.076;2022-07-22T06:05:12;12.45;;;3.72;;
37647;SDS011;23490;53.656;10.076;2022-07-22T06:07:37;13.52;;;3.85;;
37647;SDS011;23490;53.656;10.076;2022-07-22T06:10:03;10.55;;;3.78;;
37647;SDS011;23490;53.656;10.076;2022-07-22T06:12:29;11.73;;;3.53;;
37647;SDS011;23490;53.656;10.076;2022-07-22T06:14:54;10.60;;;3.33;;
37647;SDS011;23490;53.656;10.076;2022-07-22T06:17:20;12.82;;;3.70;;
37647;SDS011;23490;53.656;10.076;2022-07-22T06:19:45;7.70;;;3.30;;
37647;SDS011;23490;53.656;10.076;2022-07-22T06:22:10;13.40;;;3.05;;
37647;SDS011;23490;53.656;10.076;2022-07-22T06:24:36;12.32;;;3.78;;
37647;SDS011;23490;53.656;10.076;2022-07-22T06:27:01;10.00;;;3.15;;
37647;SDS011;23490;53.656;10.076;2022-07-22T06:29:27;10.75;;;3.47;;
37647;SDS011;23490;53.656;10.076;2022-07-22T06:31:52;10.25;;;3.63;;
37647;SDS011;23490;53.656;10.076;2022-07-22T06:34:17;11.18;;;2.80;;
37647;SDS011;23490;53.656;10.076;2022-07-22T06:36:43;11.95;;;3.47;;
37647;SDS011;23490;53.656;10.076;2022-07-22T06:39:08;14.18;;;3.67;;
37647;SDS011;23490;53.656;10.076;2022-07-22T06:41:33;12.55;;;3.35;;
37647;SDS011;23490;53.656;10.076;2022-07-22T06:43:59;13.13;;;3.35;;
37647;SDS011;23490;53.656;10.076;2022-07-22T06:46:24;9.65;;;3.10;;
37647;SDS011;23490;53.656;10.076;2022-07-22T06:48:50;15.13;;;4.00;;
37647;SDS011;23490;53.656;10.076;2022-07-22T06:51:15;13.38;;;3.70;;
37647;SDS011;23490;53.656;10.076;2022-07-22T06:53:41;11.13;;;3.10;;
37647;SDS011;23490;53.656;10.076;2022-07-22T06:56:06;11.60;;;3.25;;
37647;SDS011;23490;53.656;10.076;2022-07-22T06:58:32;10.88;;;3.20;;
37647;SDS011;23490;53.656;10.076;2022-07-22T07:00:57;10.98;;;3.63;;
37647;SDS011;23490;53.656;10.076;2022-07-22T07:03:23;8.43;;;2.75;;
37647;SDS011;23490;53.656;10.076;2022-07-22T07:05:50;9.38;;;3.10;;
37647;SDS011;23490;53.656;10.076;2022-07-22T07:08:16;13.38;;;3.40;;
37647;SDS011;23490;53.656;10.076;2022-07-22T07:10:41;13.45;;;3.88;;
37647;SDS011;23490;53.656;10.076;2022-07-22T07:13:07;9.18;;;2.88;;
37647;SDS011;23490;53.656;10.076;2022-07-22T07:15:32;7.63;;;3.28;;
37647;SDS011;23490;53.656;10.076;2022-07-22T07:17:58;10.98;;;3.30;;
37647;SDS011;23490;53.656;10.076;2022-07-22T07:20:23;10.80;;;3.10;;
37647;SDS011;23490;53.656;10.076;2022-07-22T07:22:50;11.75;;;3.00;;
37647;SDS011;23490;53.656;10.076;2022-07-22T07:25:15;10.80;;;2.80;;
37647;SDS011;23490;53.656;10.076;2022-07-22T07:27:42;12.27;;;3.30;;
37647;SDS011;23490;53.656;10.076;2022-07-22T07:30:07;11.40;;;3.17;;
37647;SDS011;23490;53.656;10.076;2022-07-22T07:32:36;14.32;;;3.78;;
37647;SDS011;23490;53.656;10.076;2022-07-22T07:35:02;12.27;;;3.30;;
37647;SDS011;23490;53.656;10.076;2022-07-22T07:37:29;10.68;;;2.70;;
37647;SDS011;23490;53.656;10.076;2022-07-22T07:39:54;9.35;;;2.63;;
37647;SDS011;23490;53.656;10.076;2022-07-22T07:42:20;15.43;;;3.50;;
37647;SDS011;23490;53.656;10.076;2022-07-22T07:44:46;9.55;;;2.75;;
37647;SDS011;23490;53.656;10.076;2022-07-22T07:47:11;11.32;;;3.00;;
37647;SDS011;23490;53.656;10.076;2022-07-22T07:49:40;11.73;;;2.63;;
37647;SDS011;23490;53.656;10.076;2022-07-22T07:52:06;15.40;;;3.80;;
37647;SDS011;23490;53.656;10.076;2022-07-22T07:54:32;10.63;;;2.92;;
37647;SDS011;23490;53.656;10.076;2022-07-22T07:56:57;13.82;;;3.42;;
37647;SDS011;23490;53.656;10.076;2022-07-22T07:59:22;14.57;;;3.03;;
37647;SDS011;23490;53.656;10.076;2022-07-22T08:01:48;12.85;;;2.90;;
37647;SDS011;23490;53.656;10.076;2022-07-22T08:04:13;11.70;;;3.05;;
37647;SDS011;23490;53.656;10.076;2022-07-22T08:06:38;12.95;;;2.70;;
37647;SDS011;23490;53.656;10.076;2022-07-22T08:09:04;13.18;;;2.50;;
37647;SDS011;23490;53.656;10.076;2022-07-22T08:11:29;13.13;;;2.58;;
37647;SDS011;23490;53.656;10.076;2022-07-22T08:13:54;9.02;;;2.92;;
37647;SDS011;23490;53.656;10.076;2022-07-22T08:16:20;10.27;;;2.95;;
37647;SDS011;23490;53.656;10.076;2022-07-22T08:18:45;11.65;;;2.55;;
37647;SDS011;23490;53.656;10.076;2022-07-22T08:21:10;9.82;;;3.28;;
37647;SDS011;23490;53.656;10.076;2022-07-22T08:23:36;12.90;;;2.83;;
37647;SDS011;23490;53.656;10.076;2022-07-22T08:26:01;11.75;;;2.47;;
37647;SDS011;23490;53.656;10.076;2022-07-22T08:28:27;10.60;;;2.85;;
37647;SDS011;23490;53.656;10.076;2022-07-22T08:30:52;10.60;;;3.03;;
37647;SDS011;23490;53.656;10.076;2022-07-22T08:33:18;10.00;;;2.50;;
37647;SDS011;23490;53.656;10.076;2022-07-22T08:35:44;9.98;;;2.60;;
37647;SDS011;23490;53.656;10.076;2022-07-22T08:38:09;10.05;;;2.72;;
37647;SDS011;23490;53.656;10.076;2022-07-22T08:40:34;9.23;;;2.10;;
37647;SDS011;23490;53.656;10.076;2022-07-22T08:43:00;12.90;;;3.05;;
37647;SDS011;23490;53.656;10.076;2022-07-22T08:45:28;11.85;;;3.05;;
37647;SDS011;23490;53.656;10.076;2022-07-22T08:47:57;10.73;;;2.40;;
37647;SDS011;23490;53.656;10.076;2022-07-22T08:50:24;7.25;;;1.98;;
37647;SDS011;23490;53.656;10.076;2022-07-22T08:52:50;8.25;;;2.05;;
37647;SDS011;23490;53.656;10.076;2022-07-22T08:55:15;6.38;;;1.90;;
37647;SDS011;23490;53.656;10.076;2022-07-22T08:57:48;7.53;;;1.75;;
37647;SDS011;23490;53.656;10.076;2022-07-22T09:00:14;15.68;;;2.22;;
37647;SDS011;23490;53.656;10.076;2022-07-22T09:02:42;6.57;;;1.90;;
37647;SDS011;23490;53.656;10.076;2022-07-22T09:05:09;8.23;;;3.25;;
37647;SDS011;23490;53.656;10.076;2022-07-22T09:07:37;10.48;;;1.80;;
37647;SDS011;23490;53.656;10.076;2022-07-22T09:10:05;8.98;;;2.08;;
37647;SDS011;23490;53.656;10.076;2022-07-22T09:12:32;7.93;;;2.28;;
37647;SDS011;23490;53.656;10.076;2022-07-22T09:15:00;10.73;;;2.10;;
37647;SDS011;23490;53.656;10.076;2022-07-22T09:17:30;11.23;;;1.77;;
37647;SDS011;23490;53.656;10.076;2022-07-22T09:20:00;8.60;;;2.20;;
37647;SDS011;23490;53.656;10.076;2022-07-22T09:22:39;9.93;;;1.95;;
37647;SDS011;23490;53.656;10.076;2022-07-22T09:30:35;9.63;;;2.42;;
37647;SDS011;23490;53.656;10.076;2022-07-22T09:33:18;8.18;;;2.15;;
37647;SDS011;23490;53.656;10.076;2022-07-22T09:35:45;8.98;;;2.00;;
37647;SDS011;23490;53.656;10.076;2022-07-22T09:38:12;7.28;;;1.95;;
37647;SDS011;23490;53.656;10.076;2022-07-22T09:40:42;11.00;;;2.33;;
37647;SDS011;23490;53.656;10.076;2022-07-22T09:43:11;8.93;;;2.33;;
37647;SDS011;23490;53.656;10.076;2022-07-22T09:45:54;7.32;;;2.05;;
37647;SDS011;23490;53.656;10.076;2022-07-22T09:48:23;7.13;;;2.15;;
37647;SDS011;23490;53.656;10.076;2022-07-22T09:50:50;10.38;;;2.45;;
37647;SDS011;23490;53.656;10.076;2022-07-22T09:53:17;7.10;;;1.67;;
37647;SDS011;23490;53.656;10.076;2022-07-22T09:55:44;9.27;;;1.88;;
37647;SDS011;23490;53.656;10.076;2022-07-22T09:58:10;6.25;;;1.90;;
37647;SDS011;23490;53.656;10.076;2022-07-22T10:00:37;5.25;;;1.52;;
37647;SDS011;23490;53.656;10.076;2022-07-22T10:03:03;7.85;;;2.00;;
37647;SDS011;23490;53.656;10.076;2022-07-22T10:05:32;7.45;;;1.42;;
37647;SDS011;23490;53.656;10.076;2022-07-22T10:08:00;6.00;;;1.85;;
37647;SDS011;23490;53.656;10.076;2022-07-22T10:10:27;7.55;;;1.92;;
37647;SDS011;23490;53.656;10.076;2022-07-22T10:12:54;8.68;;;2.20;;
37647;SDS011;23490;53.656;10.076;2022-07-22T10:15:22;11.27;;;2.47;;
37647;SDS011;23490;53.656;10.076;2022-07-22T10:17:50;11.48;;;1.77;;
37647;SDS011;23490;53.656;10.076;2022-07-22T10:20:19;7.18;;;2.28;;
37647;SDS011;23490;53.656;10.076;2022-07-22T10:22:54;10.60;;;2.05;;
37647;SDS011;23490;53.656;10.076;2022-07-22T10:25:22;5.70;;;1.90;;
37647;SDS011;23490;53.656;10.076;2022-07-22T10:27:54;9.50;;;2.58;;
37647;SDS011;23490;53.656;10.076;2022-07-22T10:30:37;6.95;;;1.83;;
37647;SDS011;23490;53.656;10.076;2022-07-22T10:33:16;8.10;;;1.98;;
37647;SDS011;23490;53.656;10.076;2022-07-22T10:35:55;7.47;;;1.70;;
37647;SDS011;23490;53.656;10.076;2022-07-22T10:38:23;7.95;;;2.22;;
37647;SDS011;23490;53.656;10.076;2022-07-22T10:40:57;10.85;;;2.03;;
37647;SDS011;23490;53.656;10.076;2022-07-22T10:43:25;6.05;;;1.50;;
37647;SDS011;23490;53.656;10.076;2022-07-22T10:45:57;4.95;;;1.45;;
37647;SDS011;23490;53.656;10.076;2022-07-22T10:51:05;13.52;;;2.22;;
37647;SDS011;23490;53.656;10.076;2022-07-22T10:53:44;7.68;;;1.85;;
37647;SDS011;23490;53.656;10.076;2022-07-22T10:56:16;5.30;;;1.63;;
37647;SDS011;23490;53.656;10.076;2022-07-22T11:01:17;5.28;;;1.75;;
37647;SDS011;23490;53.656;10.076;2022-07-22T11:03:45;8.07;;;1.67;;
37647;SDS011;23490;53.656;10.076;2022-07-22T11:06:25;6.50;;;1.27;;
37647;SDS011;23490;53.656;10.076;2022-07-22T11:08:54;7.30;;;1.40;;
37647;SDS011;23490;53.656;10.076;2022-07-22T11:14:05;4.55;;;1.42;;
37647;SDS011;23490;53.656;10.076;2022-07-22T11:16:38;7.65;;;1.67;;
37647;SDS011;23490;53.656;10.076;2022-07-22T11:19:04;8.70;;;1.42;;
37647;SDS011;23490;53.656;10.076;2022-07-22T11:21:31;5.78;;;1.80;;
37647;SDS011;23490;53.656;10.076;2022-07-22T11:23:59;6.15;;;1.05;;
37647;SDS011;23490;53.656;10.076;2022-07-22T11:29:04;10.68;;;1.60;;
37647;SDS011;23490;53.656;10.076;2022-07-22T11:31:29;6.38;;;1.08;;
37647;SDS011;23490;53.656;10.076;2022-07-22T11:34:05;8.27;;;1.25;;
37647;SDS011;23490;53.656;10.076;2022-07-22T11:36:40;5.90;;;0.95;;
37647;SDS011;23490;53.656;10.076;2022-07-22T11:39:06;5.05;;;1.10;;
37647;SDS011;23490;53.656;10.076;2022-07-22T11:41:33;6.65;;;1.25;;
37647;SDS011;23490;53.656;10.076;2022-07-22T11:43:58;6.78;;;1.27;;
37647;SDS011;23490;53.656;10.076;2022-07-22T11:46:25;4.70;;;1.50;;
37647;SDS011;23490;53.656;10.076;2022-07-22T11:48:51;7.70;;;1.35;;
37647;SDS011;23490;53.656;10.076;2022-07-22T11:51:17;7.78;;;1.90;;
37647;SDS011;23490;53.656;10.076;2022-07-22T11:53:42;8.13;;;1.50;;
37647;SDS011;23490;53.656;10.076;2022-07-22T11:56:08;5.97;;;1.40;;
37647;SDS011;23490;53.656;10.076;2022-07-22T12:01:00;7.07;;;1.27;;
37647;SDS011;23490;53.656;10.076;2022-07-22T12:03:25;4.32;;;1.30;;
37647;SDS011;23490;53.656;10.076;2022-07-22T12:05:51;6.65;;;1.58;;
37647;SDS011;23490;53.656;10.076;2022-07-22T12:08:16;4.15;;;1.20;;
37647;SDS011;23490;53.656;10.076;2022-07-22T12:10:42;5.88;;;1.30;;
37647;SDS011;23490;53.656;10.076;2022-07-22T12:13:10;7.45;;;1.15;;
37647;SDS011;23490;53.656;10.076;2022-07-22T12:15:36;5.47;;;1.50;;
37647;SDS011;23490;53.656;10.076;2022-07-22T12:21:05;3.78;;;1.27;;
37647;SDS011;23490;53.656;10.076;2022-07-22T12:23:31;6.05;;;1.17;;
37647;SDS011;23490;53.656;10.076;2022-07-22T12:25:57;6.32;;;1.40;;
37647;SDS011;23490;53.656;10.076;2022-07-22T12:28:24;5.10;;;1.33;;
37647;SDS011;23490;53.656;10.076;2022-07-22T12:30:51;6.22;;;1.10;;
37647;SDS011;23490;53.656;10.076;2022-07-22T12:33:18;5.93;;;1.33;;
37647;SDS011;23490;53.656;10.076;2022-07-22T12:35:57;6.15;;;1.30;;
37647;SDS011;23490;53.656;10.076;2022-07-22T12:38:30;3.83;;;0.90;;
37647;SDS011;23490;53.656;10.076;2022-07-22T12:40:56;4.30;;;1.05;;
37647;SDS011;23490;53.656;10.076;2022-07-22T12:43:25;7.15;;;1.60;;
37647;SDS011;23490;53.656;10.076;2022-07-22T12:45:51;5.50;;;0.75;;
37647;SDS011;23490;53.656;10.076;2022-07-22T12:48:16;4.50;;;1.20;;
37647;SDS011;23490;53.656;10.076;2022-07-22T12:51:04;4.82;;;1.20;;
37647;SDS011;23490;53.656;10.076;2022-07-22T12:53:28;2.60;;;0.80;;
37647;SDS011;23490;53.656;10.076;2022-07-22T12:55:55;2.83;;;1.08;;
37647;SDS011;23490;53.656;10.076;2022-07-22T12:58:23;5.63;;;1.20;;
37647;SDS011;23490;53.656;10.076;2022-07-22T13:00:50;3.15;;;1.02;;
37647;SDS011;23490;53.656;10.076;2022-07-22T13:03:19;5.83;;;1.40;;
37647;SDS011;23490;53.656;10.076;2022-07-22T13:05:51;4.10;;;1.27;;
37647;SDS011;23490;53.656;10.076;2022-07-22T13:08:18;5.55;;;1.13;;
37647;SDS011;23490;53.656;10.076;2022-07-22T13:10:43;3.42;;;1.23;;
37647;SDS011;23490;53.656;10.076;2022-07-22T13:13:09;6.10;;;1.20;;
37647;SDS011;23490;53.656;10.076;2022-07-22T13:15:34;4.55;;;1.10;;
37647;SDS011;23490;53.656;10.076;2022-07-22T13:18:00;5.47;;;1.33;;
37647;SDS011;23490;53.656;10.076;2022-07-22T13:20:25;2.92;;;1.08;;
37647;SDS011;23490;53.656;10.076;2022-07-22T13:22:51;6.32;;;1.73;;
37647;SDS011;23490;53.656;10.076;2022-07-22T13:25:16;4.60;;;1.00;;
37647;SDS011;23490;53.656;10.076;2022-07-22T13:27:42;4.68;;;1.55;;
37647;SDS011;23490;53.656;10.076;2022-07-22T13:30:08;4.47;;;1.10;;
37647;SDS011;23490;53.656;10.076;2022-07-22T13:32:34;5.20;;;1.10;;
37647;SDS011;23490;53.656;10.076;2022-07-22T13:34:59;5.70;;;1.20;;
37647;SDS011;23490;53.656;10.076;2022-07-22T13:37:24;6.55;;;1.67;;
37647;SDS011;23490;53.656;10.076;2022-07-22T13:39:50;7.55;;;1.55;;
37647;SDS011;23490;53.656;10.076;2022-07-22T13:42:16;6.95;;;1.45;;
37647;SDS011;23490;53.656;10.076;2022-07-22T13:44:43;7.15;;;1.17;;
37647;SDS011;23490;53.656;10.076;2022-07-22T13:47:09;6.28;;;1.30;;
37647;SDS011;23490;53.656;10.076;2022-07-22T13:49:35;3.88;;;1.20;;
37647;SDS011;23490;53.656;10.076;2022-07-22T13:52:00;4.30;;;1.55;;
37647;SDS011;23490;53.656;10.076;2022-07-22T13:54:26;5.20;;;1.17;;
37647;SDS011;23490;53.656;10.076;2022-07-22T13:56:52;3.97;;;1.30;;
37647;SDS011;23490;53.656;10.076;2022-07-22T13:59:17;4.97;;;1.27;;
37647;SDS011;23490;53.656;10.076;2022-07-22T14:01:43;3.75;;;1.48;;
37647;SDS011;23490;53.656;10.076;2022-07-22T14:04:08;4.03;;;1.10;;
37647;SDS011;23490;53.656;10.076;2022-07-22T14:06:33;4.88;;;1.33;;
37647;SDS011;23490;53.656;10.076;2022-07-22T14:08:59;4.47;;;1.10;;
37647;SDS011;23490;53.656;10.076;2022-07-22T14:11:24;4.55;;;1.20;;
37647;SDS011;23490;53.656;10.076;2022-07-22T14:13:50;6.53;;;1.30;;
37647;SDS011;23490;53.656;10.076;2022-07-22T14:16:15;4.85;;;1.23;;
37647;SDS011;23490;53.656;10.076;2022-07-22T14:19:00;7.13;;;1.42;;
37647;SDS011;23490;53.656;10.076;2022-07-22T14:21:25;5.13;;;1.10;;
37647;SDS011;23490;53.656;10.076;2022-07-22T14:23:51;5.57;;;1.30;;
37647;SDS011;23490;53.656;10.076;2022-07-22T14:26:17;5.97;;;1.15;;
37647;SDS011;23490;53.656;10.076;2022-07-22T14:28:42;4.47;;;1.52;;
37647;SDS011;23490;53.656;10.076;2022-07-22T14:31:07;4.63;;;1.30;;
37647;SDS011;23490;53.656;10.076;2022-07-22T14:33:33;5.45;;;1.40;;
37647;SDS011;23490;53.656;10.076;2022-07-22T14:35:58;5.55;;;1.38;;
37647;SDS011;23490;53.656;10.076;2022-07-22T14:38:24;5.43;;;1.27;;
37647;SDS011;23490;53.656;10.076;2022-07-22T14:40:49;5.90;;;1.30;;
37647;SDS011;23490;53.656;10.076;2022-07-22T14:43:14;4.60;;;1.50;;
37647;SDS011;23490;53.656;10.076;2022-07-22T14:45:39;3.00;;;1.08;;